Time;durP1;ratioP1;P1;durP2;ratioP2;P2;SDS_P1;SDS_P2;PMS_P1;PMS_P2;Temp;Humidity;BMP_temperature;BMP_pressure;BME280_temperature;BME280_humidity;BME280_pressure;Samples;Min_cycle;Max_cycle;Signal;HPM_P1;HPM_P2
2023/09/01 00:04:05;;;;;;;6.63;4.47;;;;;14.50;100600.00;;;;10400855;27;20208;-80
2023/09/01 00:09:06;;;;;;;7.65;4.30;;;;;14.50;100597.00;;;;10434756;27;20259;-80
2023/09/01 00:14:07;;;;;;;5.40;4.00;;;;;14.60;100590.00;;;;10433447;27;22017;-79
2023/09/01 00:19:09;;;;;;;5.53;3.47;;;;;14.60;100583.00;;;;10399176;27;21741;-80
2023/09/01 00:24:11;;;;;;;5.68;4.03;;;;;14.60;100586.00;;;;10417960;27;20504;-78
2023/09/01 00:29:12;;;;;;;6.03;3.83;;;;;14.60;100596.00;;;;10422454;27;20215;-81
2023/09/01 00:34:13;;;;;;;6.47;4.13;;;;;14.60;100587.00;;;;10406179;27;21368;-80
2023/09/01 00:39:15;;;;;;;5.45;3.40;;;;;14.70;100579.00;;;;10425664;28;20203;-79
2023/09/01 00:44:16;;;;;;;6.38;3.80;;;;;14.70;100578.00;;;;10409821;27;20212;-80
2023/09/01 00:49:18;;;;;;;4.90;3.58;;;;;14.70;100572.00;;;;10440767;27;20224;-79
2023/09/01 00:54:20;;;;;;;4.87;4.17;;;;;14.70;100564.00;;;;10425881;27;20348;-79
2023/09/01 00:59:22;;;;;;;7.65;4.20;;;;;14.70;100577.00;;;;10423967;28;20234;-80
2023/09/01 01:04:23;;;;;;;5.75;4.22;;;;;14.70;100583.00;;;;10404050;28;20213;-77
2023/09/01 01:09:38;;;;;;;5.93;4.70;;;;;14.70;100583.00;;;;10401195;27;20737;-79
2023/09/01 01:14:45;;;;;;;6.45;4.60;;;;;14.70;100579.00;;;;10447930;27;20211;-78
2023/09/01 01:19:55;;;;;;;8.77;4.38;;;;;14.70;100563.00;;;;10435220;27;20200;-77
2023/09/01 01:24:57;;;;;;;6.50;5.13;;;;;14.70;100559.00;;;;10430683;27;20205;-79
2023/09/01 01:30:00;;;;;;;9.05;4.82;;;;;14.80;100567.00;;;;10430291;27;20250;-78
2023/09/01 01:35:14;;;;;;;6.38;4.85;;;;;14.80;100559.00;;;;10415886;28;20205;-78
2023/09/01 01:40:19;;;;;;;7.00;5.15;;;;;14.70;100542.00;;;;10413575;28;20589;-78
2023/09/01 01:45:22;;;;;;;9.85;5.88;;;;;14.70;100539.00;;;;10412892;27;20223;-78
2023/09/01 01:50:24;;;;;;;7.03;5.18;;;;;14.80;100548.00;;;;10427274;27;20243;-78
2023/09/01 01:55:25;;;;;;;11.90;6.35;;;;;14.80;100549.00;;;;10431340;27;21537;-78
2023/09/01 02:00:27;;;;;;;8.27;5.15;;;;;14.80;100547.00;;;;10436338;28;20212;-78
2023/09/01 02:05:29;;;;;;;7.05;5.80;;;;;14.80;100552.00;;;;10432397;27;20720;-78
2023/09/01 02:10:30;;;;;;;8.27;5.43;;;;;14.80;100549.00;;;;10413255;27;20224;-77
2023/09/01 02:15:31;;;;;;;10.05;5.40;;;;;14.80;100551.00;;;;10414068;27;20211;-78
2023/09/01 02:20:37;;;;;;;9.77;5.63;;;;;14.90;100537.00;;;;10413082;27;21265;-79
2023/09/01 02:25:38;;;;;;;6.13;5.45;;;;;14.90;100540.00;;;;10430090;27;20205;-77
2023/09/01 02:30:40;;;;;;;7.97;4.75;;;;;14.90;100554.00;;;;10411703;27;20228;-79
2023/09/01 02:35:44;;;;;;;9.70;5.70;;;;;14.90;100552.00;;;;10415243;27;20215;-79
2023/09/01 02:40:45;;;;;;;9.48;5.13;;;;;15.00;100548.00;;;;10429500;27;20212;-78
2023/09/01 02:45:47;;;;;;;9.77;5.32;;;;;15.00;100545.00;;;;10397255;27;20203;-79
2023/09/01 02:50:48;;;;;;;10.38;6.32;;;;;15.00;100537.00;;;;10396896;27;20216;-78
2023/09/01 02:55:50;;;;;;;12.43;6.57;;;;;15.00;100541.00;;;;10414323;28;20240;-79
2023/09/01 03:00:52;;;;;;;10.02;6.70;;;;;15.00;100536.00;;;;10425675;27;20196;-79
2023/09/01 03:05:54;;;;;;;13.98;6.93;;;;;15.00;100518.00;;;;10414316;27;21615;-79
2023/09/01 03:10:55;;;;;;;11.57;7.53;;;;;15.00;100510.00;;;;10427524;27;20216;-79
2023/09/01 03:15:57;;;;;;;9.60;7.78;;;;;15.00;100519.00;;;;10409319;28;20900;-79
2023/09/01 03:21:09;;;;;;;10.60;7.32;;;;;15.00;100520.00;;;;10429909;27;20226;-78
2023/09/01 03:26:11;;;;;;;13.38;8.27;;;;;15.00;100519.00;;;;10409351;27;20886;-78
2023/09/01 03:31:12;;;;;;;9.63;6.60;;;;;15.00;100516.00;;;;10411851;27;20211;-78
2023/09/01 03:36:16;;;;;;;10.40;6.78;;;;;15.00;100514.00;;;;10425796;27;21189;-78
2023/09/01 03:41:17;;;;;;;11.50;7.53;;;;;15.00;100517.00;;;;10428957;27;20208;-78
2023/09/01 03:46:21;;;;;;;11.32;7.32;;;;;15.00;100510.00;;;;10413502;27;20205;-78
2023/09/01 03:51:26;;;;;;;13.00;7.85;;;;;15.00;100505.00;;;;10408497;27;20290;-78
2023/09/01 03:56:27;;;;;;;9.60;6.95;;;;;15.10;100503.00;;;;10409119;27;20204;-78
2023/09/01 04:01:28;;;;;;;11.15;7.45;;;;;15.10;100493.00;;;;10394450;28;20578;-79
2023/09/01 04:06:29;;;;;;;14.07;7.72;;;;;15.10;100489.00;;;;10422206;27;20203;-79
2023/09/01 04:11:31;;;;;;;11.63;7.75;;;;;15.10;100494.00;;;;10390722;27;21101;-79
2023/09/01 04:16:33;;;;;;;10.85;7.45;;;;;15.20;100495.00;;;;10405664;27;20211;-78
2023/09/01 04:21:34;;;;;;;12.45;8.27;;;;;15.20;100487.00;;;;10409132;28;20284;-78
2023/09/01 04:26:35;;;;;;;11.55;8.30;;;;;15.20;100484.00;;;;10422930;27;20208;-78
2023/09/01 04:31:37;;;;;;;15.02;8.15;;;;;15.20;100491.00;;;;10408759;27;20303;-78
2023/09/01 04:36:39;;;;;;;15.05;8.63;;;;;15.20;100492.00;;;;10390644;28;20254;-78
2023/09/01 04:41:50;;;;;;;13.70;7.88;;;;;15.30;100487.00;;;;10389962;27;20228;-79
2023/09/01 04:46:51;;;;;;;10.93;8.75;;;;;15.30;100480.00;;;;10405631;28;20520;-78
2023/09/01 04:51:53;;;;;;;12.88;8.43;;;;;15.30;100481.00;;;;10409826;27;20895;-78
2023/09/01 04:56:55;;;;;;;11.40;9.02;;;;;15.40;100484.00;;;;10407911;27;20244;-78
2023/09/01 05:01:58;;;;;;;12.65;8.55;;;;;15.40;100494.00;;;;10425749;28;20242;-79
2023/09/01 05:07:00;;;;;;;13.70;9.23;;;;;15.50;100500.00;;;;10398491;27;21288;-79
2023/09/01 05:12:02;;;;;;;16.10;9.52;;;;;15.60;100496.00;;;;10395977;27;21972;-79
2023/09/01 05:17:04;;;;;;;13.10;9.07;;;;;15.70;100490.00;;;;10423238;27;20810;-79
2023/09/01 05:22:06;;;;;;;12.60;9.38;;;;;15.80;100494.00;;;;10428160;27;22058;-79
2023/09/01 05:27:07;;;;;;;16.30;9.07;;;;;15.90;100489.00;;;;10430773;28;21079;-79
2023/09/01 05:32:08;;;;;;;13.30;8.85;;;;;15.90;100488.00;;;;10429676;27;20207;-79
2023/09/01 05:37:11;;;;;;;12.00;9.27;;;;;15.90;100487.00;;;;10393262;27;20448;-79
2023/09/01 05:42:14;;;;;;;13.50;8.32;;;;;16.00;100480.00;;;;10395020;28;20205;-79
2023/09/01 05:47:16;;;;;;;14.60;8.75;;;;;16.00;100492.00;;;;10415125;27;20207;-79
2023/09/01 05:52:18;;;;;;;13.93;8.90;;;;;16.10;100490.00;;;;10431600;28;20217;-79
2023/09/01 05:57:19;;;;;;;15.82;9.35;;;;;16.20;100484.00;;;;10399335;27;21302;-80
2023/09/01 06:02:20;;;;;;;11.45;8.15;;;;;16.30;100483.00;;;;10397845;27;21044;-80
2023/09/01 06:07:22;;;;;;;15.90;8.52;;;;;16.30;100480.00;;;;10394944;27;20292;-80
2023/09/01 06:12:23;;;;;;;11.05;7.97;;;;;16.30;100484.00;;;;10411811;27;20236;-80
2023/09/01 06:17:24;;;;;;;14.70;9.23;;;;;16.40;100479.00;;;;10400451;27;20931;-80
2023/09/01 06:22:45;;;;;;;10.50;8.23;;;;;16.40;100476.00;;;;10398831;27;20216;-80
2023/09/01 06:27:47;;;;;;;11.73;7.68;;;;;16.60;100478.00;;;;10432277;28;20265;-80
2023/09/01 06:32:48;;;;;;;13.02;8.50;;;;;16.70;100485.00;;;;10427198;27;20903;-79
2023/09/01 06:37:50;;;;;;;15.93;8.30;;;;;16.80;100488.00;;;;10414761;27;20749;-79
2023/09/01 06:42:51;;;;;;;16.08;8.07;;;;;17.00;100484.00;;;;10407911;27;21542;-79
2023/09/01 06:47:55;;;;;;;7.95;7.13;;;;;17.10;100497.00;;;;10411643;27;20212;-80
2023/09/01 06:52:56;;;;;;;12.30;7.75;;;;;17.20;100494.00;;;;10425864;27;20209;-79
2023/09/01 06:57:58;;;;;;;11.30;6.90;;;;;17.20;100498.00;;;;10450178;27;20192;-79
2023/09/01 07:02:59;;;;;;;15.10;7.38;;;;;17.20;100501.00;;;;10424839;27;20705;-79
2023/09/01 07:08:00;;;;;;;12.55;6.68;;;;;17.10;100506.00;;;;10421642;27;20224;-80
2023/09/01 07:13:02;;;;;;;15.75;6.03;;;;;17.10;100498.00;;;;10443924;27;20283;-79
2023/09/01 07:18:04;;;;;;;29.08;7.13;;;;;17.20;100505.00;;;;10426857;27;20208;-79
2023/09/01 07:23:05;;;;;;;20.27;6.43;;;;;17.10;100547.00;;;;10419513;27;20247;-80
2023/09/01 07:28:07;;;;;;;31.42;6.55;;;;;17.00;100550.00;;;;10386897;27;20239;-80
2023/09/01 07:33:08;;;;;;;19.98;4.20;;;;;16.80;100527.00;;;;10384330;27;20276;-80
2023/09/01 07:38:09;;;;;;;9.45;3.05;;;;;16.70;100523.00;;;;10411103;27;20211;-79
2023/09/01 07:43:12;;;;;;;4.93;1.85;;;;;16.70;100518.00;;;;10378088;27;20307;-79
2023/09/01 07:48:13;;;;;;;8.63;1.90;;;;;16.60;100525.00;;;;10379525;28;20610;-80
2023/09/01 07:53:23;;;;;;;28.23;2.55;;;;;16.60;100534.00;;;;10392161;27;20232;-79
2023/09/01 07:58:25;;;;;;;16.98;2.80;;;;;16.70;100530.00;;;;10407714;28;20208;-80
2023/09/01 08:03:26;;;;;;;18.00;3.00;;;;;16.80;100522.00;;;;10410639;27;20200;-80
2023/09/01 08:08:28;;;;;;;30.48;2.70;;;;;17.00;100531.00;;;;10425138;27;20335;-80
2023/09/01 08:13:29;;;;;;;7.15;2.20;;;;;17.10;100533.00;;;;10417650;27;20331;-80
2023/09/01 08:18:33;;;;;;;15.90;6.22;;;;;17.20;100532.00;;;;10404295;27;20702;-80
2023/09/01 08:23:34;;;;;;;23.60;20.95;;;;;17.20;100546.00;;;;10408407;27;21321;-79
2023/09/01 08:28:35;;;;;;;18.67;8.13;;;;;17.20;100557.00;;;;10440719;27;20220;-80
2023/09/01 08:33:37;;;;;;;38.83;24.48;;;;;17.20;100565.00;;;;10434434;27;20207;-80
2023/09/01 08:38:38;;;;;;;5.38;3.35;;;;;17.20;100564.00;;;;10399970;27;20688;-80
2023/09/01 08:43:46;;;;;;;13.43;8.80;;;;;17.10;100571.00;;;;10407018;27;20555;-79
2023/09/01 08:48:48;;;;;;;10.40;2.60;;;;;17.10;100575.00;;;;10411251;27;20220;-80
2023/09/01 08:53:50;;;;;;;5.50;1.60;;;;;17.20;100578.00;;;;10433863;28;20204;-80
2023/09/01 08:58:51;;;;;;;4.40;1.30;;;;;17.50;100579.00;;;;10431989;28;21609;-80
2023/09/01 09:03:53;;;;;;;3.50;1.20;;;;;17.80;100580.00;;;;10397817;27;20594;-79
2023/09/01 09:09:04;;;;;;;5.03;1.90;;;;;18.10;100581.00;;;;10414525;27;20224;-80
2023/09/01 09:14:06;;;;;;;5.75;3.60;;;;;18.30;100577.00;;;;10399793;27;20827;-80
2023/09/01 09:19:16;;;;;;;56.15;44.95;;;;;18.50;100577.00;;;;10412013;27;20513;-79
2023/09/01 09:24:36;;;;;;;1.88;1.42;;;;;18.70;100583.00;;;;10396106;27;20688;-79
2023/09/01 09:29:40;;;;;;;3.97;1.15;;;;;18.80;100594.00;;;;10410975;27;20225;-80
2023/09/01 09:34:41;;;;;;;1.50;0.88;;;;;18.80;100596.00;;;;10445307;28;20204;-79
2023/09/01 09:39:43;;;;;;;6.63;1.23;;;;;18.70;100604.00;;;;10408828;27;20204;-79
2023/09/01 09:44:44;;;;;;;1.23;0.55;;;;;18.80;100609.00;;;;10447322;27;20687;-80
2023/09/01 09:49:46;;;;;;;0.93;0.50;;;;;19.00;100618.00;;;;10409443;28;20223;-80
2023/09/01 09:54:49;;;;;;;1.52;0.68;;;;;18.70;100626.00;;;;10426049;27;20864;-80
2023/09/01 10:00:10;;;;;;;1.50;0.75;;;;;18.50;100629.00;;;;10422339;27;20201;-80
2023/09/01 10:05:19;;;;;;;4.13;0.65;;;;;18.70;100628.00;;;;10422308;27;20212;-79
2023/09/01 10:10:21;;;;;;;1.10;0.60;;;;;19.30;100634.00;;;;10426342;28;20457;-80
2023/09/01 10:15:25;;;;;;;6.47;0.75;;;;;19.90;100632.00;;;;10411865;27;20236;-80
2023/09/01 10:20:27;;;;;;;1.25;0.60;;;;;20.30;100634.00;;;;10428892;27;20201;-81
2023/09/01 10:25:29;;;;;;;0.82;0.50;;;;;20.90;100635.00;;;;10414853;27;20658;-80
2023/09/01 10:30:35;;;;;;;1.45;0.40;;;;;21.40;100645.00;;;;10432644;27;20698;-80
2023/09/01 10:35:41;;;;;;;1.80;0.40;;;;;22.20;100645.00;;;;10448834;27;20942;-80
2023/09/01 10:40:51;;;;;;;53.03;4.15;;;;;22.30;100646.00;;;;10430548;27;20200;-80
2023/09/01 10:46:11;;;;;;;1.70;0.70;;;;;22.60;100647.00;;;;10430510;27;20203;-79
2023/09/01 10:51:18;;;;;;;2.05;0.50;;;;;23.10;100649.00;;;;10431437;27;20220;-80
2023/09/01 10:56:20;;;;;;;1.70;0.60;;;;;23.40;100658.00;;;;10425817;27;20251;-80
2023/09/01 11:01:41;;;;;;;1.67;0.70;;;;;22.80;100664.00;;;;10430488;27;20294;-81
2023/09/01 11:07:00;;;;;;;1.55;1.05;;;;;22.60;100666.00;;;;10446068;27;20981;-80
2023/09/01 11:12:07;;;;;;;1.13;0.82;;;;;21.70;100681.00;;;;10443879;27;20280;-80
2023/09/01 11:17:08;;;;;;;1.30;1.20;;;;;20.80;100682.00;;;;10411753;27;20211;-80
2023/09/01 11:22:09;;;;;;;1.50;1.20;;;;;21.20;100682.00;;;;10379321;27;20531;-80
2023/09/01 11:27:11;;;;;;;1.00;0.88;;;;;22.10;100677.00;;;;10427957;28;20399;-80
2023/09/01 11:32:27;;;;;;;1.83;1.30;;;;;23.70;100682.00;;;;10443946;27;20209;-80
2023/09/01 11:37:41;;;;;;;1.27;1.00;;;;;23.40;100683.00;;;;10430815;27;20209;-81
2023/09/01 11:42:44;;;;;;;1.00;0.93;;;;;23.30;100680.00;;;;10464000;27;20204;-81
2023/09/01 11:47:51;;;;;;;2.38;1.20;;;;;23.70;100690.00;;;;10452912;27;20221;-82
2023/09/01 11:52:54;;;;;;;5.55;1.10;;;;;22.70;100705.00;;;;10421965;27;20879;-83
2023/09/01 11:57:56;;;;;;;2.42;1.40;;;;;22.00;100704.00;;;;10457457;27;20204;-82
2023/09/01 12:02:59;;;;;;;1.52;1.17;;;;;22.70;100713.00;;;;10435173;27;20208;-83
2023/09/01 12:08:02;;;;;;;2.70;1.88;;;;;24.40;100713.00;;;;10431251;27;20706;-82
2023/09/01 12:13:08;;;;;;;5.30;1.42;;;;;25.40;100709.00;;;;10435966;27;20207;-82
2023/09/01 12:18:28;;;;;;;1.52;1.30;;;;;26.50;100707.00;;;;10431836;27;20244;-81
2023/09/01 12:23:32;;;;;;;3.22;1.67;;;;;25.50;100708.00;;;;10416585;27;20287;-80
2023/09/01 12:28:35;;;;;;;3.25;1.48;;;;;26.70;100709.00;;;;10432294;27;20212;-80
2023/09/01 12:33:37;;;;;;;1.20;1.10;;;;;24.90;100714.00;;;;10431366;27;20348;-80
2023/09/01 12:38:47;;;;;;;1.05;0.93;;;;;24.10;100725.00;;;;10427842;27;20205;-81
2023/09/01 12:43:49;;;;;;;2.53;1.23;;;;;22.60;100739.00;;;;10405517;27;20211;-80
2023/09/01 12:48:51;;;;;;;2.95;1.10;;;;;21.80;100739.00;;;;10443184;27;20224;-81
2023/09/01 12:53:52;;;;;;;0.98;0.93;;;;;21.80;100731.00;;;;10420710;27;20256;-81
2023/09/01 12:58:54;;;;;;;0.85;0.85;;;;;22.30;100744.00;;;;10409470;27;20278;-82
2023/09/01 13:03:55;;;;;;;1.05;1.00;;;;;22.80;100739.00;;;;10387049;27;20197;-81
2023/09/01 13:08:57;;;;;;;0.75;0.68;;;;;23.80;100746.00;;;;10411896;28;20536;-81
2023/09/01 13:13:58;;;;;;;2.15;1.08;;;;;24.50;100752.00;;;;10412933;27;21327;-79
2023/09/01 13:18:59;;;;;;;2.55;1.00;;;;;24.20;100745.00;;;;10406922;27;21530;-80
2023/09/01 13:24:00;;;;;;;1.25;0.80;;;;;24.70;100745.00;;;;10436375;27;21984;-80
2023/09/01 13:29:02;;;;;;;0.80;0.73;;;;;25.10;100745.00;;;;10378299;28;20224;-81
2023/09/01 13:34:05;;;;;;;0.85;0.65;;;;;26.60;100741.00;;;;10425831;27;21874;-80
2023/09/01 13:39:06;;;;;;;1.25;0.90;;;;;26.80;100747.00;;;;10431251;27;20205;-80
2023/09/01 13:44:07;;;;;;;2.53;1.08;;;;;26.70;100748.00;;;;10431731;27;20223;-81
2023/09/01 13:49:09;;;;;;;1.45;0.82;;;;;26.40;100752.00;;;;10433388;27;20228;-82
2023/09/01 13:54:11;;;;;;;2.35;0.82;;;;;25.50;100761.00;;;;10434627;27;20209;-81
2023/09/01 13:59:12;;;;;;;0.90;0.90;;;;;25.90;100753.00;;;;10419728;27;20204;-81
2023/09/01 14:04:14;;;;;;;1.38;1.17;;;;;25.60;100757.00;;;;10446389;28;20208;-81
2023/09/01 14:09:18;;;;;;;1.95;1.23;;;;;25.50;100768.00;;;;10444121;28;20416;-81
2023/09/01 14:14:21;;;;;;;1.10;1.00;;;;;25.00;100758.00;;;;10463531;27;20212;-81
2023/09/01 14:19:32;;;;;;;1.90;1.35;;;;;25.90;100760.00;;;;10452567;27;21726;-80
2023/09/01 14:24:33;;;;;;;1.45;1.38;;;;;27.00;100753.00;;;;10413402;28;20197;-81
2023/09/01 14:29:36;;;;;;;2.50;2.15;;;;;25.50;100750.00;;;;10428950;27;21573;-80
2023/09/01 14:34:38;;;;;;;3.13;2.15;;;;;25.20;100748.00;;;;10442274;27;21061;-81
2023/09/01 14:39:39;;;;;;;4.03;2.72;;;;;25.30;100770.00;;;;10433130;27;21813;-80
2023/09/01 14:44:40;;;;;;;3.05;2.47;;;;;26.20;100772.00;;;;10430777;27;20204;-81
2023/09/01 14:49:42;;;;;;;4.72;2.92;;;;;26.10;100779.00;;;;10446936;28;21038;-81
2023/09/01 14:54:43;;;;;;;5.45;2.75;;;;;24.80;100774.00;;;;10434149;27;20196;-80
2023/09/01 14:59:45;;;;;;;2.90;2.70;;;;;24.30;100779.00;;;;10415507;27;20262;-83
2023/09/01 15:04:46;;;;;;;3.55;3.00;;;;;24.10;100786.00;;;;10426799;27;20229;-82
2023/09/01 15:09:49;;;;;;;3.75;3.33;;;;;23.60;100784.00;;;;10432093;28;20224;-82
2023/09/01 15:14:51;;;;;;;4.93;3.00;;;;;23.50;100785.00;;;;10434291;27;20204;-81
2023/09/01 15:19:52;;;;;;;3.60;3.10;;;;;23.70;100779.00;;;;10422285;27;20224;-81
2023/09/01 15:24:53;;;;;;;3.35;3.10;;;;;23.80;100780.00;;;;10426141;27;20238;-81
2023/09/01 15:29:55;;;;;;;3.47;3.17;;;;;23.70;100770.00;;;;10448753;27;20634;-82
2023/09/01 15:34:56;;;;;;;3.90;3.47;;;;;23.70;100778.00;;;;10413100;27;20659;-81
2023/09/01 15:40:19;;;;;;;3.13;2.90;;;;;23.70;100774.00;;;;10454304;28;20212;-81
2023/09/01 15:45:20;;;;;;;3.45;3.10;;;;;23.60;100780.00;;;;10439192;28;20658;-81
2023/09/01 15:50:23;;;;;;;3.15;2.90;;;;;23.40;100778.00;;;;10453795;28;20789;-81
2023/09/01 15:55:40;;;;;;;3.60;3.30;;;;;23.20;100779.00;;;;10416064;27;20778;-80
2023/09/01 16:00:41;;;;;;;3.55;3.20;;;;;22.90;100771.00;;;;10414394;27;20218;-81
2023/09/01 16:05:42;;;;;;;4.15;3.53;;;;;22.80;100769.00;;;;10411425;27;20205;-80
2023/09/01 16:10:44;;;;;;;5.35;3.10;;;;;22.80;100773.00;;;;10431383;27;21240;-81
2023/09/01 16:15:45;;;;;;;3.72;3.10;;;;;22.70;100773.00;;;;10414213;27;20197;-81
2023/09/01 16:20:47;;;;;;;3.60;3.20;;;;;22.70;100787.00;;;;10412228;27;20283;-81
2023/09/01 16:25:56;;;;;;;3.75;3.40;;;;;22.60;100778.00;;;;10411756;27;20347;-81
2023/09/01 16:30:57;;;;;;;3.20;2.95;;;;;22.50;100778.00;;;;10381767;27;20217;-82
2023/09/01 16:36:00;;;;;;;3.03;2.83;;;;;22.40;100784.00;;;;10427652;27;20231;-81
2023/09/01 16:41:01;;;;;;;3.05;2.75;;;;;22.40;100780.00;;;;10427544;27;21958;-81
2023/09/01 16:46:02;;;;;;;2.85;1.70;;;;;22.20;100778.00;;;;10429638;27;20227;-81
2023/09/01 16:51:04;;;;;;;4.38;1.85;;;;;22.10;100783.00;;;;10428173;27;21396;-82
2023/09/01 16:56:06;;;;;;;4.80;1.30;;;;;22.00;100785.00;;;;10415265;27;20215;-80
2023/09/01 17:01:07;;;;;;;2.33;1.30;;;;;22.10;100781.00;;;;10413138;27;20915;-80
2023/09/01 17:06:08;;;;;;;1.17;0.85;;;;;22.00;100782.00;;;;10428473;27;20657;-80
2023/09/01 17:11:10;;;;;;;1.50;1.20;;;;;21.90;100782.00;;;;10417438;27;21378;-81
2023/09/01 17:16:11;;;;;;;1.10;1.00;;;;;21.60;100786.00;;;;10434660;27;21266;-82
2023/09/01 17:21:12;;;;;;;2.05;1.13;;;;;21.40;100790.00;;;;10418791;28;20710;-81
2023/09/01 17:26:14;;;;;;;4.53;1.25;;;;;21.30;100797.00;;;;10434706;27;20211;-80
2023/09/01 17:31:17;;;;;;;1.88;1.33;;;;;21.10;100805.00;;;;10454190;27;20212;-80
2023/09/01 17:36:18;;;;;;;2.28;1.10;;;;;21.00;100801.00;;;;10420028;28;20215;-81
2023/09/01 17:41:37;;;;;;;4.13;1.58;;;;;20.90;100801.00;;;;10419011;27;21307;-80
2023/09/01 17:46:38;;;;;;;1.83;1.73;;;;;20.80;100803.00;;;;10413997;27;20219;-80
2023/09/01 17:51:40;;;;;;;5.82;1.77;;;;;20.70;100812.00;;;;10418218;27;20323;-80
2023/09/01 17:56:41;;;;;;;2.55;1.75;;;;;20.60;100817.00;;;;10414605;27;20209;-80
2023/09/01 18:01:46;;;;;;;1.95;1.67;;;;;20.50;100820.00;;;;10434066;27;20286;-80
2023/09/01 18:06:49;;;;;;;4.45;1.65;;;;;20.20;100829.00;;;;10433578;27;20239;-80
2023/09/01 18:11:51;;;;;;;1.98;1.50;;;;;20.10;100839.00;;;;10398099;28;20916;-80
2023/09/01 18:16:52;;;;;;;1.50;1.30;;;;;19.90;100848.00;;;;10431669;27;20501;-80
2023/09/01 18:22:00;;;;;;;2.40;1.40;;;;;19.80;100851.00;;;;10430113;27;20294;-80
2023/09/01 18:27:06;;;;;;;3.13;1.60;;;;;19.70;100849.00;;;;10414649;27;20965;-81
2023/09/01 18:32:09;;;;;;;2.97;1.70;;;;;19.50;100862.00;;;;10413353;27;20339;-80
2023/09/01 18:37:12;;;;;;;4.43;1.65;;;;;19.40;100874.00;;;;10414674;28;20684;-79
2023/09/01 18:42:27;;;;;;;4.05;1.60;;;;;19.30;100872.00;;;;10432076;28;20615;-80
2023/09/01 18:47:29;;;;;;;2.53;1.80;;;;;19.20;100871.00;;;;10432907;27;20214;-81
2023/09/01 18:52:30;;;;;;;2.45;1.90;;;;;19.10;100874.00;;;;10429906;27;20486;-80
2023/09/01 18:57:31;;;;;;;6.63;2.08;;;;;19.00;100888.00;;;;10429721;28;20370;-81
2023/09/01 19:02:37;;;;;;;2.20;1.67;;;;;18.90;100891.00;;;;10412369;27;20207;-80
2023/09/01 19:07:38;;;;;;;5.97;3.03;;;;;18.80;100902.00;;;;10431777;27;20235;-80
2023/09/01 19:12:41;;;;;;;4.60;2.70;;;;;18.80;100902.00;;;;10428644;27;20232;-79
2023/09/01 19:17:43;;;;;;;3.80;2.40;;;;;18.70;100920.00;;;;10429689;27;20196;-80
2023/09/01 19:22:45;;;;;;;2.90;2.13;;;;;18.60;100923.00;;;;10429425;27;20268;-80
2023/09/01 19:27:47;;;;;;;3.35;2.05;;;;;18.60;100931.00;;;;10426118;27;20211;-79
2023/09/01 19:33:08;;;;;;;2.28;1.60;;;;;18.60;100937.00;;;;10414543;28;20246;-79
2023/09/01 19:38:13;;;;;;;2.42;1.70;;;;;18.60;100941.00;;;;10430051;28;20249;-80
2023/09/01 19:43:14;;;;;;;3.10;1.70;;;;;18.50;100952.00;;;;10449133;27;20558;-80
2023/09/01 19:48:17;;;;;;;1.73;1.60;;;;;18.50;100953.00;;;;10397434;27;20263;-80
2023/09/01 19:53:23;;;;;;;3.15;1.90;;;;;18.40;100955.00;;;;10411348;27;20410;-79
2023/09/01 19:58:28;;;;;;;4.40;1.85;;;;;18.40;100966.00;;;;10415964;28;20287;-81
2023/09/01 20:03:30;;;;;;;2.90;2.00;;;;;18.30;100968.00;;;;10432016;27;20215;-82
2023/09/01 20:08:31;;;;;;;2.58;1.90;;;;;18.30;100958.00;;;;10429706;27;20792;-80
2023/09/01 20:13:36;;;;;;;2.17;1.85;;;;;18.40;100958.00;;;;10415979;27;20511;-80
2023/09/01 20:18:38;;;;;;;4.60;1.90;;;;;18.30;100957.00;;;;10400286;27;20774;-79
2023/09/01 20:23:39;;;;;;;4.97;1.80;;;;;18.30;100970.00;;;;10428090;27;20211;-80
2023/09/01 20:28:41;;;;;;;2.00;1.75;;;;;18.20;100969.00;;;;10409195;27;20716;-79
2023/09/01 20:33:42;;;;;;;2.67;1.80;;;;;18.10;100979.00;;;;10395448;27;21193;-81
2023/09/01 20:38:44;;;;;;;4.03;1.88;;;;;18.00;100976.00;;;;10425002;28;20195;-81
2023/09/01 20:43:45;;;;;;;8.43;2.15;;;;;17.90;100974.00;;;;10414086;27;20196;-79
2023/09/01 20:48:47;;;;;;;4.88;2.40;;;;;17.80;100978.00;;;;10419981;27;20235;-80
2023/09/01 20:53:48;;;;;;;5.32;2.70;;;;;17.70;100980.00;;;;10401874;27;20492;-81
2023/09/01 20:58:50;;;;;;;4.40;2.13;;;;;17.70;100993.00;;;;10405058;27;20204;-80
2023/09/01 21:03:52;;;;;;;11.00;2.55;;;;;17.60;100996.00;;;;10416543;27;20880;-79
2023/09/01 21:08:53;;;;;;;4.80;2.55;;;;;17.50;101003.00;;;;10417447;27;20422;-81
2023/09/01 21:13:54;;;;;;;2.80;2.50;;;;;17.50;101004.00;;;;10419112;27;20262;-79
2023/09/01 21:18:56;;;;;;;3.67;2.35;;;;;17.50;101006.00;;;;10452115;27;21897;-79
2023/09/01 21:23:57;;;;;;;4.03;2.22;;;;;17.60;101005.00;;;;10434420;27;21001;-79
2023/09/01 21:28:59;;;;;;;3.15;2.50;;;;;17.60;101003.00;;;;10418757;27;20223;-80
2023/09/01 21:34:02;;;;;;;5.97;2.70;;;;;17.50;101018.00;;;;10401712;27;20208;-79
2023/09/01 21:39:06;;;;;;;4.45;2.50;;;;;17.60;101011.00;;;;10433155;27;20219;-79
2023/09/01 21:44:08;;;;;;;4.63;2.38;;;;;17.60;101008.00;;;;10432597;27;20208;-81
2023/09/01 21:49:09;;;;;;;2.65;2.45;;;;;17.50;101003.00;;;;10416375;28;20337;-80
2023/09/01 21:54:10;;;;;;;3.35;2.38;;;;;17.60;101007.00;;;;10433886;27;20422;-80
2023/09/01 21:59:12;;;;;;;3.65;2.72;;;;;17.50;101012.00;;;;10416784;27;20725;-82
2023/09/01 22:04:13;;;;;;;5.38;2.17;;;;;17.50;101009.00;;;;10431754;27;20315;-81
2023/09/01 22:09:14;;;;;;;2.95;2.08;;;;;17.40;101000.00;;;;10435990;28;21057;-79
2023/09/01 22:14:16;;;;;;;3.42;2.28;;;;;17.40;101009.00;;;;10434245;27;20903;-79
2023/09/01 22:19:17;;;;;;;5.82;2.83;;;;;17.30;101014.00;;;;10430556;27;20499;-79
2023/09/01 22:24:19;;;;;;;3.15;2.28;;;;;17.30;101019.00;;;;10416084;27;20204;-82
2023/09/01 22:29:20;;;;;;;3.92;2.42;;;;;17.30;101026.00;;;;10433036;27;20252;-79
2023/09/01 22:34:21;;;;;;;5.05;3.00;;;;;17.20;101028.00;;;;10431670;27;20462;-79
2023/09/01 22:39:23;;;;;;;3.60;2.80;;;;;17.20;101021.00;;;;10417373;27;20239;-79
2023/09/01 22:44:24;;;;;;;3.75;2.58;;;;;17.10;101033.00;;;;10402708;28;21630;-79
2023/09/01 22:49:26;;;;;;;4.50;3.25;;;;;16.90;101040.00;;;;10404901;28;20315;-79
2023/09/01 22:54:27;;;;;;;4.07;2.67;;;;;16.90;101041.00;;;;10418061;28;20281;-79
2023/09/01 22:59:28;;;;;;;6.65;2.90;;;;;16.80;101043.00;;;;10417806;27;20335;-79
2023/09/01 23:04:30;;;;;;;5.88;3.03;;;;;16.80;101048.00;;;;10421842;27;20580;-81
2023/09/01 23:09:32;;;;;;;3.60;3.03;;;;;16.80;101054.00;;;;10420256;27;20271;-79
2023/09/01 23:14:34;;;;;;;4.55;3.10;;;;;16.80;101055.00;;;;10426882;27;20292;-79
2023/09/01 23:19:35;;;;;;;5.13;2.95;;;;;16.70;101054.00;;;;10419913;27;20245;-79
2023/09/01 23:24:36;;;;;;;7.30;2.88;;;;;16.70;101065.00;;;;10405586;27;20324;-79
2023/09/01 23:29:37;;;;;;;5.93;3.08;;;;;16.80;101073.00;;;;10418754;27;20287;-81
2023/09/01 23:34:39;;;;;;;7.18;3.47;;;;;16.90;101073.00;;;;10422118;28;20881;-79
2023/09/01 23:39:41;;;;;;;7.80;3.45;;;;;16.90;101075.00;;;;10402405;27;20209;-79
2023/09/01 23:44:42;;;;;;;7.00;3.72;;;;;16.80;101074.00;;;;10419423;27;20203;-81
2023/09/01 23:49:44;;;;;;;4.63;3.50;;;;;16.80;101064.00;;;;10419556;27;20242;-79
2023/09/01 23:54:45;;;;;;;5.25;3.30;;;;;16.70;101067.00;;;;10418533;28;21867;-79
2023/09/01 23:59:47;;;;;;;6.80;4.20;;;;;16.70;101062.00;;;;10436364;27;20212;-79
